sensor_id;sensor_type;location;lat;lon;timestamp;temperature;humidity
47384;DHT22;33129;52.232;5.192;2022-09-09T00:07:54;19.00;99.90
47384;DHT22;33129;52.232;5.192;2022-09-09T00:10:32;19.10;99.90
47384;DHT22;33129;52.232;5.192;2022-09-09T00:21:16;19.10;99.90
47384;DHT22;33129;52.232;5.192;2022-09-09T00:23:54;19.40;99.90
47384;DHT22;33129;52.232;5.192;2022-09-09T00:26:44;18.80;99.90
47384;DHT22;33129;52.232;5.192;2022-09-09T00:29:16;18.90;99.90
47384;DHT22;33129;52.232;5.192;2022-09-09T00:31:47;19.10;99.90
47384;DHT22;33129;52.232;5.192;2022-09-09T00:36:45;19.30;99.90
47384;DHT22;33129;52.232;5.192;2022-09-09T00:39:42;19.10;99.90
47384;DHT22;33129;52.232;5.192;2022-09-09T00:58:43;18.60;1.00
47384;DHT22;33129;52.232;5.192;2022-09-09T01:01:16;18.80;1.00
47384;DHT22;33129;52.232;5.192;2022-09-09T01:03:53;18.30;1.00
47384;DHT22;33129;52.232;5.192;2022-09-09T01:09:19;18.60;1.00
47384;DHT22;33129;52.232;5.192;2022-09-09T01:12:12;18.70;1.00
47384;DHT22;33129;52.232;5.192;2022-09-09T01:14:51;18.40;1.00
47384;DHT22;33129;52.232;5.192;2022-09-09T01:17:30;18.20;1.00
47384;DHT22;33129;52.232;5.192;2022-09-09T01:20:17;18.30;1.00
47384;DHT22;33129;52.232;5.192;2022-09-09T01:28:36;18.60;1.00
47384;DHT22;33129;52.232;5.192;2022-09-09T01:31:04;18.10;1.00
47384;DHT22;33129;52.232;5.192;2022-09-09T01:33:31;17.80;1.00
47384;DHT22;33129;52.232;5.192;2022-09-09T01:38:44;18.10;1.00
47384;DHT22;33129;52.232;5.192;2022-09-09T01:41:10;18.10;1.00
47384;DHT22;33129;52.232;5.192;2022-09-09T01:43:36;17.70;1.00
47384;DHT22;33129;52.232;5.192;2022-09-09T01:46:02;17.90;1.00
47384;DHT22;33129;52.232;5.192;2022-09-09T01:48:29;18.00;1.00
47384;DHT22;33129;52.232;5.192;2022-09-09T01:50:55;18.20;1.00
47384;DHT22;33129;52.232;5.192;2022-09-09T01:53:22;17.90;1.00
47384;DHT22;33129;52.232;5.192;2022-09-09T01:59:20;17.80;1.00
47384;DHT22;33129;52.232;5.192;2022-09-09T02:04:50;17.90;1.00
47384;DHT22;33129;52.232;5.192;2022-09-09T02:10:24;18.30;1.00
47384;DHT22;33129;52.232;5.192;2022-09-09T02:13:05;18.10;1.00
47384;DHT22;33129;52.232;5.192;2022-09-09T02:15:56;17.80;1.00
47384;DHT22;33129;52.232;5.192;2022-09-09T02:18:30;17.80;1.00
47384;DHT22;33129;52.232;5.192;2022-09-09T02:21:01;18.20;1.00
47384;DHT22;33129;52.232;5.192;2022-09-09T02:23:30;17.40;1.00
47384;DHT22;33129;52.232;5.192;2022-09-09T02:25:58;17.40;1.00
47384;DHT22;33129;52.232;5.192;2022-09-09T02:28:26;17.90;1.00
47384;DHT22;33129;52.232;5.192;2022-09-09T02:30:54;18.10;1.00
47384;DHT22;33129;52.232;5.192;2022-09-09T02:33:23;18.00;1.00
47384;DHT22;33129;52.232;5.192;2022-09-09T02:35:52;17.80;1.00
47384;DHT22;33129;52.232;5.192;2022-09-09T02:38:21;17.80;1.00
47384;DHT22;33129;52.232;5.192;2022-09-09T02:40:47;17.80;1.00
47384;DHT22;33129;52.232;5.192;2022-09-09T02:43:15;17.60;1.00
47384;DHT22;33129;52.232;5.192;2022-09-09T02:48:44;17.90;1.00
47384;DHT22;33129;52.232;5.192;2022-09-09T02:51:29;17.80;1.00
47384;DHT22;33129;52.232;5.192;2022-09-09T02:56:53;17.50;1.00
47384;DHT22;33129;52.232;5.192;2022-09-09T02:59:22;17.60;1.00
47384;DHT22;33129;52.232;5.192;2022-09-09T03:01:48;17.90;1.00
47384;DHT22;33129;52.232;5.192;2022-09-09T03:04:13;17.90;1.00
47384;DHT22;33129;52.232;5.192;2022-09-09T03:06:39;18.10;1.00
47384;DHT22;33129;52.232;5.192;2022-09-09T03:09:05;17.80;1.00
47384;DHT22;33129;52.232;5.192;2022-09-09T03:11:31;17.90;1.00
47384;DHT22;33129;52.232;5.192;2022-09-09T03:13:56;17.90;1.00
47384;DHT22;33129;52.232;5.192;2022-09-09T03:16:23;17.80;1.00
47384;DHT22;33129;52.232;5.192;2022-09-09T03:18:49;17.90;1.00
47384;DHT22;33129;52.232;5.192;2022-09-09T03:21:14;17.80;1.00
47384;DHT22;33129;52.232;5.192;2022-09-09T03:23:40;17.90;1.00
47384;DHT22;33129;52.232;5.192;2022-09-09T03:26:06;18.00;1.00
47384;DHT22;33129;52.232;5.192;2022-09-09T03:28:32;17.50;1.00
47384;DHT22;33129;52.232;5.192;2022-09-09T03:30:59;17.70;1.00
47384;DHT22;33129;52.232;5.192;2022-09-09T03:33:29;18.00;1.00
47384;DHT22;33129;52.232;5.192;2022-09-09T03:35:56;17.80;1.00
47384;DHT22;33129;52.232;5.192;2022-09-09T03:38:25;17.40;1.00
47384;DHT22;33129;52.232;5.192;2022-09-09T03:40:55;17.70;1.00
47384;DHT22;33129;52.232;5.192;2022-09-09T03:43:26;17.50;1.00
47384;DHT22;33129;52.232;5.192;2022-09-09T03:45:53;17.20;1.00
47384;DHT22;33129;52.232;5.192;2022-09-09T03:48:22;17.30;1.00
47384;DHT22;33129;52.232;5.192;2022-09-09T03:50:50;17.20;1.00
47384;DHT22;33129;52.232;5.192;2022-09-09T03:53:18;17.10;1.00
47384;DHT22;33129;52.232;5.192;2022-09-09T03:55:46;17.10;1.00
47384;DHT22;33129;52.232;5.192;2022-09-09T03:58:14;17.50;1.00
47384;DHT22;33129;52.232;5.192;2022-09-09T04:00:41;17.70;1.00
47384;DHT22;33129;52.232;5.192;2022-09-09T04:03:10;17.70;1.00
47384;DHT22;33129;52.232;5.192;2022-09-09T04:05:36;17.10;1.00
47384;DHT22;33129;52.232;5.192;2022-09-09T04:08:08;17.00;1.00
47384;DHT22;33129;52.232;5.192;2022-09-09T04:10:34;17.40;1.00
47384;DHT22;33129;52.232;5.192;2022-09-09T04:13:04;16.90;1.00
47384;DHT22;33129;52.232;5.192;2022-09-09T04:15:30;16.80;1.00
47384;DHT22;33129;52.232;5.192;2022-09-09T04:17:56;16.90;1.00
47384;DHT22;33129;52.232;5.192;2022-09-09T04:20:22;16.60;1.00
47384;DHT22;33129;52.232;5.192;2022-09-09T04:22:48;17.20;1.00
47384;DHT22;33129;52.232;5.192;2022-09-09T04:25:14;16.90;1.00
47384;DHT22;33129;52.232;5.192;2022-09-09T04:27:40;17.10;1.00
47384;DHT22;33129;52.232;5.192;2022-09-09T04:30:06;17.10;1.00
47384;DHT22;33129;52.232;5.192;2022-09-09T04:32:35;17.40;1.00
47384;DHT22;33129;52.232;5.192;2022-09-09T04:35:02;17.00;1.00
47384;DHT22;33129;52.232;5.192;2022-09-09T04:37:28;17.10;1.00
47384;DHT22;33129;52.232;5.192;2022-09-09T04:39:54;17.00;1.00
47384;DHT22;33129;52.232;5.192;2022-09-09T04:42:20;16.90;1.00
47384;DHT22;33129;52.232;5.192;2022-09-09T04:44:45;17.00;1.00
47384;DHT22;33129;52.232;5.192;2022-09-09T04:47:11;16.90;1.00
47384;DHT22;33129;52.232;5.192;2022-09-09T04:49:37;17.00;1.00
47384;DHT22;33129;52.232;5.192;2022-09-09T04:52:03;17.10;1.00
47384;DHT22;33129;52.232;5.192;2022-09-09T04:54:29;17.00;1.00
47384;DHT22;33129;52.232;5.192;2022-09-09T04:56:55;17.00;1.00
47384;DHT22;33129;52.232;5.192;2022-09-09T04:59:22;16.90;1.00
47384;DHT22;33129;52.232;5.192;2022-09-09T05:01:48;17.00;1.00
47384;DHT22;33129;52.232;5.192;2022-09-09T05:04:16;17.00;1.00
47384;DHT22;33129;52.232;5.192;2022-09-09T05:06:42;16.80;1.00
47384;DHT22;33129;52.232;5.192;2022-09-09T05:09:08;17.10;1.00
47384;DHT22;33129;52.232;5.192;2022-09-09T05:11:34;17.00;1.00
47384;DHT22;33129;52.232;5.192;2022-09-09T05:14:03;16.80;1.00
47384;DHT22;33129;52.232;5.192;2022-09-09T05:16:29;16.90;1.00
47384;DHT22;33129;52.232;5.192;2022-09-09T05:18:56;16.40;1.00
47384;DHT22;33129;52.232;5.192;2022-09-09T05:21:23;17.00;1.00
47384;DHT22;33129;52.232;5.192;2022-09-09T05:23:52;17.00;1.00
47384;DHT22;33129;52.232;5.192;2022-09-09T05:26:21;16.80;1.00
47384;DHT22;33129;52.232;5.192;2022-09-09T05:28:47;16.40;1.00
47384;DHT22;33129;52.232;5.192;2022-09-09T05:31:15;16.90;1.00
47384;DHT22;33129;52.232;5.192;2022-09-09T05:33:45;16.70;1.00
47384;DHT22;33129;52.232;5.192;2022-09-09T05:36:15;17.00;1.00
47384;DHT22;33129;52.232;5.192;2022-09-09T05:38:43;16.80;1.00
47384;DHT22;33129;52.232;5.192;2022-09-09T05:41:10;16.70;1.00
47384;DHT22;33129;52.232;5.192;2022-09-09T05:43:37;16.90;1.00
47384;DHT22;33129;52.232;5.192;2022-09-09T05:48:35;17.00;1.00
47384;DHT22;33129;52.232;5.192;2022-09-09T05:51:07;17.00;1.00
47384;DHT22;33129;52.232;5.192;2022-09-09T05:53:36;16.70;1.00
47384;DHT22;33129;52.232;5.192;2022-09-09T05:56:15;17.00;1.00
47384;DHT22;33129;52.232;5.192;2022-09-09T05:58:45;16.60;1.00
47384;DHT22;33129;52.232;5.192;2022-09-09T06:01:16;17.30;1.00
47384;DHT22;33129;52.232;5.192;2022-09-09T06:03:45;17.10;1.00
47384;DHT22;33129;52.232;5.192;2022-09-09T06:06:14;17.30;1.00
47384;DHT22;33129;52.232;5.192;2022-09-09T06:08:43;17.10;1.00
47384;DHT22;33129;52.232;5.192;2022-09-09T06:11:15;17.20;1.00
47384;DHT22;33129;52.232;5.192;2022-09-09T06:13:42;17.30;1.00
47384;DHT22;33129;52.232;5.192;2022-09-09T06:16:16;17.30;1.00
47384;DHT22;33129;52.232;5.192;2022-09-09T06:18:44;17.30;1.00
47384;DHT22;33129;52.232;5.192;2022-09-09T06:21:18;17.50;1.00
47384;DHT22;33129;52.232;5.192;2022-09-09T06:23:46;17.30;1.00
47384;DHT22;33129;52.232;5.192;2022-09-09T06:26:19;17.60;1.00
47384;DHT22;33129;52.232;5.192;2022-09-09T06:28:47;17.30;1.00
47384;DHT22;33129;52.232;5.192;2022-09-09T06:31:16;17.00;1.00
47384;DHT22;33129;52.232;5.192;2022-09-09T06:33:43;18.20;1.00
47384;DHT22;33129;52.232;5.192;2022-09-09T06:36:12;17.90;1.00
47384;DHT22;33129;52.232;5.192;2022-09-09T06:38:43;18.90;1.00
47384;DHT22;33129;52.232;5.192;2022-09-09T06:41:11;18.90;1.00
47384;DHT22;33129;52.232;5.192;2022-09-09T06:43:39;18.80;1.00
47384;DHT22;33129;52.232;5.192;2022-09-09T06:46:07;18.50;1.00
47384;DHT22;33129;52.232;5.192;2022-09-09T06:48:35;17.90;1.00
47384;DHT22;33129;52.232;5.192;2022-09-09T06:51:07;18.20;1.00
47384;DHT22;33129;52.232;5.192;2022-09-09T06:53:37;18.50;1.00
47384;DHT22;33129;52.232;5.192;2022-09-09T06:58:37;18.10;1.00
47384;DHT22;33129;52.232;5.192;2022-09-09T07:01:10;18.10;1.00
47384;DHT22;33129;52.232;5.192;2022-09-09T07:03:40;18.70;1.00
47384;DHT22;33129;52.232;5.192;2022-09-09T07:06:09;18.70;1.00
47384;DHT22;33129;52.232;5.192;2022-09-09T07:08:40;18.60;1.00
47384;DHT22;33129;52.232;5.192;2022-09-09T07:11:08;18.50;1.00
47384;DHT22;33129;52.232;5.192;2022-09-09T07:13:34;18.60;1.00
47384;DHT22;33129;52.232;5.192;2022-09-09T07:16:21;18.30;1.00
47384;DHT22;33129;52.232;5.192;2022-09-09T07:18:50;19.10;1.00
47384;DHT22;33129;52.232;5.192;2022-09-09T07:21:17;19.30;1.00
47384;DHT22;33129;52.232;5.192;2022-09-09T07:23:43;19.60;1.00
47384;DHT22;33129;52.232;5.192;2022-09-09T07:26:12;19.00;1.00
47384;DHT22;33129;52.232;5.192;2022-09-09T07:28:39;19.40;1.00
47384;DHT22;33129;52.232;5.192;2022-09-09T07:31:06;19.60;1.00
47384;DHT22;33129;52.232;5.192;2022-09-09T07:33:34;19.50;1.00
47384;DHT22;33129;52.232;5.192;2022-09-09T07:36:06;19.40;1.00
47384;DHT22;33129;52.232;5.192;2022-09-09T07:38:43;19.40;1.00
47384;DHT22;33129;52.232;5.192;2022-09-09T07:41:13;19.30;1.00
47384;DHT22;33129;52.232;5.192;2022-09-09T07:43:43;18.50;1.00
47384;DHT22;33129;52.232;5.192;2022-09-09T07:46:11;18.60;1.00
47384;DHT22;33129;52.232;5.192;2022-09-09T07:48:39;19.00;1.00
47384;DHT22;33129;52.232;5.192;2022-09-09T07:51:11;19.20;1.00
47384;DHT22;33129;52.232;5.192;2022-09-09T07:53:44;19.10;1.00
47384;DHT22;33129;52.232;5.192;2022-09-09T07:56:13;18.90;1.00
47384;DHT22;33129;52.232;5.192;2022-09-09T07:58:44;18.60;1.00
47384;DHT22;33129;52.232;5.192;2022-09-09T08:01:23;18.70;1.00
47384;DHT22;33129;52.232;5.192;2022-09-09T08:04:03;19.00;1.00
47384;DHT22;33129;52.232;5.192;2022-09-09T08:06:37;18.60;1.00
47384;DHT22;33129;52.232;5.192;2022-09-09T08:09:05;19.00;1.00
47384;DHT22;33129;52.232;5.192;2022-09-09T08:11:32;18.80;1.00
47384;DHT22;33129;52.232;5.192;2022-09-09T08:13:59;18.90;1.00
47384;DHT22;33129;52.232;5.192;2022-09-09T08:16:28;18.80;1.00
47384;DHT22;33129;52.232;5.192;2022-09-09T08:18:56;18.80;1.00
47384;DHT22;33129;52.232;5.192;2022-09-09T08:21:27;18.90;1.00
47384;DHT22;33129;52.232;5.192;2022-09-09T08:23:56;18.50;1.00
47384;DHT22;33129;52.232;5.192;2022-09-09T08:26:26;18.80;1.00
47384;DHT22;33129;52.232;5.192;2022-09-09T08:28:57;18.90;1.00
47384;DHT22;33129;52.232;5.192;2022-09-09T08:31:25;18.90;1.00
47384;DHT22;33129;52.232;5.192;2022-09-09T08:34:20;18.50;1.00
47384;DHT22;33129;52.232;5.192;2022-09-09T08:36:48;18.90;1.00
47384;DHT22;33129;52.232;5.192;2022-09-09T08:39:18;18.80;1.00
47384;DHT22;33129;52.232;5.192;2022-09-09T08:45:46;19.00;99.90
47384;DHT22;33129;52.232;5.192;2022-09-09T08:51:30;18.90;99.90
47384;DHT22;33129;52.232;5.192;2022-09-09T08:54:00;19.00;99.90
47384;DHT22;33129;52.232;5.192;2022-09-09T08:56:31;19.40;99.90
47384;DHT22;33129;52.232;5.192;2022-09-09T08:58:59;19.10;99.90
47384;DHT22;33129;52.232;5.192;2022-09-09T09:01:54;19.10;99.90
47384;DHT22;33129;52.232;5.192;2022-09-09T09:10:24;18.70;99.90
47384;DHT22;33129;52.232;5.192;2022-09-09T09:12:52;19.20;99.90
47384;DHT22;33129;52.232;5.192;2022-09-09T09:15:27;19.40;99.90
47384;DHT22;33129;52.232;5.192;2022-09-09T09:17:56;19.30;99.90
47384;DHT22;33129;52.232;5.192;2022-09-09T09:20:42;19.40;99.90
47384;DHT22;33129;52.232;5.192;2022-09-09T09:23:21;19.10;99.90
47384;DHT22;33129;52.232;5.192;2022-09-09T09:25:49;19.30;99.90
47384;DHT22;33129;52.232;5.192;2022-09-09T09:28:24;19.10;99.90
47384;DHT22;33129;52.232;5.192;2022-09-09T09:31:05;19.00;99.90
47384;DHT22;33129;52.232;5.192;2022-09-09T09:36:15;19.30;99.90
47384;DHT22;33129;52.232;5.192;2022-09-09T09:38:56;19.10;99.90
47384;DHT22;33129;52.232;5.192;2022-09-09T09:41:32;19.30;99.90
47384;DHT22;33129;52.232;5.192;2022-09-09T09:44:01;19.10;99.90
47384;DHT22;33129;52.232;5.192;2022-09-09T09:46:28;19.10;99.90
47384;DHT22;33129;52.232;5.192;2022-09-09T09:49:02;19.20;99.90
47384;DHT22;33129;52.232;5.192;2022-09-09T09:51:32;19.30;99.90
47384;DHT22;33129;52.232;5.192;2022-09-09T09:54:18;19.20;99.90
47384;DHT22;33129;52.232;5.192;2022-09-09T09:57:13;19.10;99.90
47384;DHT22;33129;52.232;5.192;2022-09-09T09:59:40;19.20;99.90
47384;DHT22;33129;52.232;5.192;2022-09-09T10:05:12;19.40;99.90
47384;DHT22;33129;52.232;5.192;2022-09-09T10:07:41;18.90;1.00
47384;DHT22;33129;52.232;5.192;2022-09-09T10:10:13;19.20;1.00
47384;DHT22;33129;52.232;5.192;2022-09-09T10:18:36;19.20;1.00
47384;DHT22;33129;52.232;5.192;2022-09-09T10:21:19;19.00;1.00
47384;DHT22;33129;52.232;5.192;2022-09-09T10:26:34;19.40;1.00
47384;DHT22;33129;52.232;5.192;2022-09-09T10:29:30;19.70;1.00
47384;DHT22;33129;52.232;5.192;2022-09-09T10:32:13;19.60;1.00
47384;DHT22;33129;52.232;5.192;2022-09-09T10:38:02;19.60;1.00
47384;DHT22;33129;52.232;5.192;2022-09-09T10:41:07;19.30;1.00
47384;DHT22;33129;52.232;5.192;2022-09-09T10:46:45;19.50;1.00
47384;DHT22;33129;52.232;5.192;2022-09-09T10:54:57;20.20;1.00
47384;DHT22;33129;52.232;5.192;2022-09-09T10:57:32;20.50;1.00
47384;DHT22;33129;52.232;5.192;2022-09-09T11:03:00;20.80;1.00
47384;DHT22;33129;52.232;5.192;2022-09-09T11:05:44;21.30;1.00
47384;DHT22;33129;52.232;5.192;2022-09-09T11:08:24;20.60;1.00
47384;DHT22;33129;52.232;5.192;2022-09-09T11:19:40;20.20;99.90
47384;DHT22;33129;52.232;5.192;2022-09-09T11:22:39;20.20;1.00
47384;DHT22;33129;52.232;5.192;2022-09-09T11:28:31;20.20;1.00
47384;DHT22;33129;52.232;5.192;2022-09-09T11:42:33;20.40;99.90
47384;DHT22;33129;52.232;5.192;2022-09-09T11:45:09;20.00;99.90
47384;DHT22;33129;52.232;5.192;2022-09-09T11:47:36;20.40;99.90
47384;DHT22;33129;52.232;5.192;2022-09-09T11:52:42;20.50;99.90
47384;DHT22;33129;52.232;5.192;2022-09-09T11:58:03;20.60;99.90
47384;DHT22;33129;52.232;5.192;2022-09-09T12:03:52;20.00;99.90
47384;DHT22;33129;52.232;5.192;2022-09-09T12:06:31;19.50;1.00
47384;DHT22;33129;52.232;5.192;2022-09-09T12:11:50;19.50;1.00
47384;DHT22;33129;52.232;5.192;2022-09-09T12:17:22;19.60;1.00
47384;DHT22;33129;52.232;5.192;2022-09-09T12:26:18;20.10;1.00
47384;DHT22;33129;52.232;5.192;2022-09-09T12:31:39;20.10;1.00
47384;DHT22;33129;52.232;5.192;2022-09-09T12:37:40;19.90;1.00
47384;DHT22;33129;52.232;5.192;2022-09-09T12:40:29;20.30;1.00
47384;DHT22;33129;52.232;5.192;2022-09-09T12:42:58;20.80;1.00
47384;DHT22;33129;52.232;5.192;2022-09-09T12:45:28;20.70;99.90
47384;DHT22;33129;52.232;5.192;2022-09-09T12:48:06;20.40;99.90
47384;DHT22;33129;52.232;5.192;2022-09-09T12:50:48;20.60;99.90
47384;DHT22;33129;52.232;5.192;2022-09-09T12:58:34;20.50;99.90
47384;DHT22;33129;52.232;5.192;2022-09-09T13:01:03;20.10;99.90
47384;DHT22;33129;52.232;5.192;2022-09-09T13:03:31;20.50;99.90
47384;DHT22;33129;52.232;5.192;2022-09-09T13:06:11;20.50;99.90
47384;DHT22;33129;52.232;5.192;2022-09-09T13:08:39;20.30;99.90
47384;DHT22;33129;52.232;5.192;2022-09-09T13:17:02;20.40;99.90
47384;DHT22;33129;52.232;5.192;2022-09-09T13:19:37;19.90;99.90
47384;DHT22;33129;52.232;5.192;2022-09-09T13:25:18;20.20;99.90
47384;DHT22;33129;52.232;5.192;2022-09-09T13:27:58;20.00;99.90
47384;DHT22;33129;52.232;5.192;2022-09-09T13:36:03;20.10;99.90
47384;DHT22;33129;52.232;5.192;2022-09-09T13:38:32;20.50;99.90
47384;DHT22;33129;52.232;5.192;2022-09-09T13:41:04;20.80;99.90
47384;DHT22;33129;52.232;5.192;2022-09-09T13:43:37;20.70;99.90
47384;DHT22;33129;52.232;5.192;2022-09-09T13:46:23;20.50;99.90
47384;DHT22;33129;52.232;5.192;2022-09-09T13:51:45;20.60;99.90
47384;DHT22;33129;52.232;5.192;2022-09-09T13:54:18;20.70;99.90
47384;DHT22;33129;52.232;5.192;2022-09-09T13:56:45;20.60;99.90
47384;DHT22;33129;52.232;5.192;2022-09-09T13:59:16;20.70;99.90
47384;DHT22;33129;52.232;5.192;2022-09-09T14:01:45;20.20;99.90
47384;DHT22;33129;52.232;5.192;2022-09-09T14:04:11;20.50;99.90
47384;DHT22;33129;52.232;5.192;2022-09-09T14:06:38;20.60;99.90
47384;DHT22;33129;52.232;5.192;2022-09-09T14:09:15;20.50;99.90
47384;DHT22;33129;52.232;5.192;2022-09-09T14:11:42;20.50;99.90
47384;DHT22;33129;52.232;5.192;2022-09-09T14:14:10;20.10;99.90
47384;DHT22;33129;52.232;5.192;2022-09-09T14:16:36;20.60;99.90
47384;DHT22;33129;52.232;5.192;2022-09-09T14:19:03;20.60;99.90
47384;DHT22;33129;52.232;5.192;2022-09-09T14:21:29;20.60;99.90
47384;DHT22;33129;52.232;5.192;2022-09-09T14:23:56;20.40;99.90
47384;DHT22;33129;52.232;5.192;2022-09-09T14:26:24;20.30;99.90
47384;DHT22;33129;52.232;5.192;2022-09-09T14:28:50;20.50;99.90
47384;DHT22;33129;52.232;5.192;2022-09-09T14:31:17;20.00;99.90
47384;DHT22;33129;52.232;5.192;2022-09-09T14:33:43;20.00;1.00
47384;DHT22;33129;52.232;5.192;2022-09-09T14:36:10;19.80;1.00
47384;DHT22;33129;52.232;5.192;2022-09-09T14:38:38;20.10;1.00
47384;DHT22;33129;52.232;5.192;2022-09-09T14:41:05;19.90;1.00
47384;DHT22;33129;52.232;5.192;2022-09-09T14:43:32;20.10;1.00
47384;DHT22;33129;52.232;5.192;2022-09-09T14:46:05;20.00;1.00
47384;DHT22;33129;52.232;5.192;2022-09-09T14:48:32;20.40;1.00
47384;DHT22;33129;52.232;5.192;2022-09-09T14:51:08;19.90;1.00
47384;DHT22;33129;52.232;5.192;2022-09-09T14:53:35;20.20;1.00
47384;DHT22;33129;52.232;5.192;2022-09-09T14:56:12;20.00;1.00
47384;DHT22;33129;52.232;5.192;2022-09-09T14:58:42;20.50;1.00
47384;DHT22;33129;52.232;5.192;2022-09-09T15:01:11;20.10;1.00
47384;DHT22;33129;52.232;5.192;2022-09-09T15:03:39;20.50;1.00
47384;DHT22;33129;52.232;5.192;2022-09-09T15:06:07;20.70;99.90
47384;DHT22;33129;52.232;5.192;2022-09-09T15:08:41;20.70;99.90
47384;DHT22;33129;52.232;5.192;2022-09-09T15:11:09;20.10;99.90
47384;DHT22;33129;52.232;5.192;2022-09-09T15:13:37;20.40;99.90
47384;DHT22;33129;52.232;5.192;2022-09-09T15:16:06;20.60;99.90
47384;DHT22;33129;52.232;5.192;2022-09-09T15:18:43;20.50;99.90
47384;DHT22;33129;52.232;5.192;2022-09-09T15:21:18;20.50;99.90
47384;DHT22;33129;52.232;5.192;2022-09-09T15:23:46;20.50;99.90
47384;DHT22;33129;52.232;5.192;2022-09-09T15:26:13;20.60;99.90
47384;DHT22;33129;52.232;5.192;2022-09-09T15:28:39;20.60;99.90
47384;DHT22;33129;52.232;5.192;2022-09-09T15:31:11;20.40;99.90
47384;DHT22;33129;52.232;5.192;2022-09-09T15:33:39;20.40;99.90
47384;DHT22;33129;52.232;5.192;2022-09-09T15:36:29;20.00;99.90
47384;DHT22;33129;52.232;5.192;2022-09-09T15:38:57;20.30;99.90
47384;DHT22;33129;52.232;5.192;2022-09-09T15:41:25;20.40;99.90
47384;DHT22;33129;52.232;5.192;2022-09-09T15:43:54;20.30;99.90
47384;DHT22;33129;52.232;5.192;2022-09-09T15:46:32;19.90;99.90
47384;DHT22;33129;52.232;5.192;2022-09-09T15:49:17;20.30;99.90
47384;DHT22;33129;52.232;5.192;2022-09-09T15:51:46;20.40;99.90
47384;DHT22;33129;52.232;5.192;2022-09-09T15:54:18;20.40;99.90
47384;DHT22;33129;52.232;5.192;2022-09-09T15:56:47;20.20;99.90
47384;DHT22;33129;52.232;5.192;2022-09-09T15:59:14;20.60;99.90
47384;DHT22;33129;52.232;5.192;2022-09-09T16:01:40;20.40;99.90
47384;DHT22;33129;52.232;5.192;2022-09-09T16:04:07;20.40;99.90
47384;DHT22;33129;52.232;5.192;2022-09-09T16:06:34;20.30;99.90
47384;DHT22;33129;52.232;5.192;2022-09-09T16:09:03;20.60;99.90
47384;DHT22;33129;52.232;5.192;2022-09-09T16:11:32;20.60;99.90
47384;DHT22;33129;52.232;5.192;2022-09-09T16:13:59;20.30;99.90
47384;DHT22;33129;52.232;5.192;2022-09-09T16:16:27;20.50;99.90
47384;DHT22;33129;52.232;5.192;2022-09-09T16:18:56;20.60;99.90
47384;DHT22;33129;52.232;5.192;2022-09-09T16:21:32;20.50;99.90
47384;DHT22;33129;52.232;5.192;2022-09-09T16:24:02;20.50;99.90
47384;DHT22;33129;52.232;5.192;2022-09-09T16:26:30;20.50;99.90
47384;DHT22;33129;52.232;5.192;2022-09-09T16:28:57;20.20;99.90
47384;DHT22;33129;52.232;5.192;2022-09-09T16:31:25;20.40;99.90
47384;DHT22;33129;52.232;5.192;2022-09-09T16:33:52;20.10;99.90
47384;DHT22;33129;52.232;5.192;2022-09-09T16:36:23;20.30;99.90
47384;DHT22;33129;52.232;5.192;2022-09-09T16:38:54;20.60;99.90
47384;DHT22;33129;52.232;5.192;2022-09-09T16:41:23;20.40;99.90
47384;DHT22;33129;52.232;5.192;2022-09-09T16:44:00;20.20;99.90
47384;DHT22;33129;52.232;5.192;2022-09-09T16:46:29;20.40;99.90
47384;DHT22;33129;52.232;5.192;2022-09-09T16:48:57;20.00;99.90
47384;DHT22;33129;52.232;5.192;2022-09-09T16:51:26;20.00;99.90
47384;DHT22;33129;52.232;5.192;2022-09-09T16:53:54;20.30;99.90
47384;DHT22;33129;52.232;5.192;2022-09-09T16:56:23;20.00;99.90
47384;DHT22;33129;52.232;5.192;2022-09-09T16:58:55;19.70;99.90
47384;DHT22;33129;52.232;5.192;2022-09-09T17:01:23;19.80;99.90
47384;DHT22;33129;52.232;5.192;2022-09-09T17:03:56;20.00;99.90
47384;DHT22;33129;52.232;5.192;2022-09-09T17:06:23;20.00;99.90
47384;DHT22;33129;52.232;5.192;2022-09-09T17:09:00;19.70;99.90
47384;DHT22;33129;52.232;5.192;2022-09-09T17:11:28;20.20;99.90
47384;DHT22;33129;52.232;5.192;2022-09-09T17:13:56;20.00;99.90
47384;DHT22;33129;52.232;5.192;2022-09-09T17:16:24;20.00;99.90
47384;DHT22;33129;52.232;5.192;2022-09-09T17:18:56;20.20;99.90
47384;DHT22;33129;52.232;5.192;2022-09-09T17:21:26;19.80;99.90
47384;DHT22;33129;52.232;5.192;2022-09-09T17:23:53;20.10;99.90
47384;DHT22;33129;52.232;5.192;2022-09-09T17:26:21;19.80;99.90
